Time,TemperatureF,DewpointF,PressureIn,WindDirection,WindDirectionDegrees,WindSpeedMPH,WindSpeedGustMPH,Humidity,HourlyPrecipIn,Conditions,Clouds,dailyrainin,SoftwareType,DateUTC
2013-08-24 21:40:00,75.1,69.2,30.06,North,9,0.0,0.0,82,0.00,,,0.01,Wunderground v.1.15,2013-08-25 01:40:00,
2013-08-24 21:50:00,74.9,69.0,30.07,North,9,0.0,0.0,82,0.00,,,0.01,Wunderground v.1.15,2013-08-25 01:50:00,
2013-08-24 21:55:00,74.9,69.0,30.08,North,9,0.0,0.0,82,0.00,,,0.01,Wunderground v.1.15,2013-08-25 01:55:00,
2013-08-24 22:00:00,74.9,69.0,30.08,North,9,0.0,0.0,82,0.00,,,0.01,Wunderground v.1.15,2013-08-25 02:00:00,
2013-08-24 22:10:00,74.8,68.9,30.07,North,9,0.0,0.0,82,0.00,,,0.01,Wunderground v.1.15,2013-08-25 02:10:00,
2013-08-24 22:20:00,74.7,68.8,30.07,North,9,0.0,0.0,82,0.00,,,0.01,Wunderground v.1.15,2013-08-25 02:20:00,
2013-08-24 22:30:00,74.4,68.5,30.07,North,9,0.0,0.0,82,0.00,,,0.01,Wunderground v.1.15,2013-08-25 02:30:00,
2013-08-24 22:35:00,74.2,68.3,30.07,North,9,0.0,0.0,82,0.00,,,0.01,Wunderground v.1.15,2013-08-25 02:35:00,
2013-08-24 22:40:00,74.0,68.2,30.07,North,9,0.0,0.0,82,0.00,,,0.01,Wunderground v.1.15,2013-08-25 02:40:00,
2013-08-24 22:50:00,73.8,68.0,30.07,North,9,0.0,0.0,82,0.00,,,0.01,Wunderground v.1.15,2013-08-25 02:50:00,
2013-08-24 22:55:00,73.6,67.8,30.08,North,9,0.0,0.0,82,0.00,,,0.01,Wunderground v.1.15,2013-08-25 02:55:00,
2013-08-24 23:00:00,73.6,67.8,30.08,North,9,0.0,0.0,82,0.00,,,0.01,Wunderground v.1.15,2013-08-25 03:00:00,
2013-08-24 23:05:00,73.6,67.8,30.07,North,9,0.0,0.0,82,0.00,,,0.01,Wunderground v.1.15,2013-08-25 03:05:00,
2013-08-24 23:10:00,73.7,67.9,30.07,North,9,0.0,0.0,82,0.00,,,0.01,Wunderground v.1.15,2013-08-25 03:10:00,
2013-08-24 23:15:00,73.8,68.0,30.07,North,9,0.0,0.0,82,0.00,,,0.01,Wunderground v.1.15,2013-08-25 03:15:00,
2013-08-24 23:20:00,73.9,68.1,30.07,North,9,0.0,0.0,82,0.00,,,0.01,Wunderground v.1.15,2013-08-25 03:20:00,
2013-08-24 23:25:00,73.8,68.0,30.07,North,9,0.0,0.0,82,0.00,,,0.01,Wunderground v.1.15,2013-08-25 03:25:00,
2013-08-24 23:30:00,73.8,68.0,30.08,North,9,0.0,0.0,82,0.00,,,0.01,Wunderground v.1.15,2013-08-25 03:30:00,
2013-08-24 23:35:00,73.8,68.0,30.08,North,9,0.0,0.0,82,0.00,,,0.01,Wunderground v.1.15,2013-08-25 03:35:00,
2013-08-24 23:40:00,73.9,68.1,30.08,North,9,0.0,0.0,82,0.00,,,0.01,Wunderground v.1.15,2013-08-25 03:40:00,
2013-08-24 23:45:00,74.0,68.2,30.08,North,9,0.0,0.0,82,0.00,,,0.01,Wunderground v.1.15,2013-08-25 03:45:00,
2013-08-24 23:55:00,73.9,68.1,30.08,North,9,0.0,0.0,82,0.00,,,0.01,Wunderground v.1.15,2013-08-25 03:55:00,